Dauntless Aviation
Airports Europe Belgium
EBAW
ANR

Antwerp International Airport (Deurne)

Antwerp, BELGIUM

Airport Info
Suggest Updated Information for this Airport

Location

Latitude / Longitude: 51°11'21"N / 4°27'37"E
  51°11.364'N / 4°27.618'E
  51.1894 / 4.4603

Nearby radio navigation aids

ANT ANTWERPEN VOR/DME on field.
NIK NICKY VOR/DME. 83.0° 10.6nm from NIK to field.
ONW ANTWERPEN NDB. 290.6° 4.1nm from ONW to field.
WW ANTWERP NDB on field.

Runway Information

Runway 11 /29

Dimensions: 4954 x 148 ft.
Surface: ASP
 
Runway 11
Runway 29
Latitude: 51.191861 51.187706
Longitude: 4.454758 4.473178
Elevation: 36 ft. 36 ft.
Runway true heading: 108 288
 

Instrument Procedures

  Aerodrome Chart
  Aerodrome Chart Appendix 1: Runway Marking and Lighting Aids
  Aerodrome Chart Appendix 2: Hot Spots

STARs (Standard Terminal Arrivals)

  STAR - Instrument

IAPs (Instrument Approach Procedures)

  Visual Approach Chart
  Visual Approach Chart Appendix 1: Aerodrome Traffic Circuit
  Aerodrome Obstacle Chart. Type A (Operating Limitations)
  RNP Rwy 11. Appendix: FAS Datablock
  Visual Approach Chart Appendix 2: Helicopter Procedures
  ATC Surveillance Minimum Altitude Chart
  ILS or LOC Rwy 29
  RNP Rwy 11
  VOR Rwy 11
  VOR Rwy 29
  Aerodrome Information (Textual)

Departure Procedures

  SID - Instrument Rwy 11
  SID - Instrument Rwy 29
Satellite photo at:
Airport distance calculator
From:
Weather Reports

METAR

EBAW

EBAW 181550Z 32007KT 9999 SCT041 25/15 Q1013 NOSIG
EHWO
16.5nm NW
EHWO 181555Z AUTO 30009KT 220V010 9999 NCD 25/17 Q1013 BLU
EBBR
17.4nm SE
EBBR 181550Z VRB02KT 9999 SCT040 25/14 Q1013 NOSIG
EBDT
25.1nm E
EBDT 181555Z AUTO 32003KT 9999 FEW069/// 26/15 Q1013 BLU
EHGR
28.4nm N
EHGR 181555Z AUTO 27003KT 270V080 9999 SCT045 BKN050 OVC056 25/17 Q1013 BLU
EBBE
28.8nm SE
EBBE 181555Z AUTO 10003KT 9999 FEW042/// OVC050/// 25/15 Q1013 BLU

TAF

EBAW
TAF EBAW 181401Z 1815/1824 34005KT 9999 SCT030
EHWO
16.5nm NW
TAF EHWO 180815Z 1809/1821 VRB02KT 9999 FEW015 BECMG 1809/1811 35004KT PROB30 TEMPO 1812/1818 FEW015 SCT025CB
EBBR
17.4nm SE
TAF EBBR 181115Z 1812/1918 34006KT 9999 SCT025 SCT045 PROB30 TEMPO 1903/1906 4000 BR BECMG 1909/1911 26010KT PROB40 TEMPO 1914/1918 3500 SHRA
EHGR
28.4nm N
TAF EHGR 180821Z 1809/1821 33004KT 9999 FEW015 PROB30 TEMPO 1812/1818 FEW015 SCT025CB
EBBE
28.8nm SE
TAF EBBE 181141Z 1813/1822 34006KT 9999 FEW040 SCT045
EBBL
37.9nm E
TAF EBBL 181141Z 1813/1822 36005KT 9999 SCT040 BECMG 1818/1820 SKC
Safelog

 

Dauntless Aviation

© 2007-2022 Dauntless Aviation, all rights reserved
Information provided via PilotNav comes from a variety of official and unofficial data sources. As errors are possible, do not use PilotNav for primary flight planning purposes. Verify any information that you receive via PilotNav with current and canonical charts and other official documents. The material in this database is subject to database copyrights held by Dauntless Aviation and may not be copied without the express permission of Dauntless Aviation - licenses for use of part of all of this data are available for purchase; enquire via the Dauntless Aviation helpdesk. A number of mechanisms and markers exist in the database to protect against and identify infringement / copyright. Automated queries against this website are strictly prohibited, and all activity is logged and analyzed.